createdAt,value
2022-10-02T00:00:00.318Z,19.2
2022-10-02T00:01:00.566Z,19.2
2022-10-02T00:02:00.365Z,19.1
2022-10-02T00:03:00.296Z,19.1
2022-10-02T00:04:00.426Z,19.1
2022-10-02T00:05:00.453Z,19.1
2022-10-02T00:06:00.308Z,19.1
2022-10-02T00:07:00.448Z,19.0
2022-10-02T00:08:00.355Z,19.0
2022-10-02T00:09:00.369Z,19.0
2022-10-02T00:10:00.359Z,19.0
2022-10-02T00:11:00.307Z,19.0
2022-10-02T00:12:00.343Z,19.0
2022-10-02T00:13:00.536Z,19.0
2022-10-02T00:14:00.321Z,19.0
2022-10-02T00:15:00.320Z,19.0
2022-10-02T00:16:00.386Z,19.0
2022-10-02T00:17:00.307Z,19.0
2022-10-02T00:18:00.309Z,19.0
2022-10-02T00:19:00.584Z,19.0
2022-10-02T00:20:00.537Z,19.0
2022-10-02T00:21:00.275Z,19.0
2022-10-02T00:22:00.284Z,18.9
2022-10-02T00:23:00.308Z,18.9
2022-10-02T00:24:00.297Z,18.9
2022-10-02T00:25:00.489Z,19.0
2022-10-02T00:26:00.298Z,19.0
2022-10-02T00:27:00.311Z,19.0
2022-10-02T00:28:00.377Z,18.9
2022-10-02T00:29:00.294Z,18.9
2022-10-02T00:30:00.306Z,18.9
2022-10-02T00:31:00.515Z,18.9
2022-10-02T00:32:00.316Z,18.9
2022-10-02T00:33:00.293Z,18.8
2022-10-02T00:34:00.283Z,18.8
2022-10-02T00:35:00.524Z,18.9
2022-10-02T00:36:00.298Z,18.8
2022-10-02T00:37:00.399Z,18.8
2022-10-02T00:38:00.308Z,18.8
2022-10-02T00:39:00.395Z,18.8
2022-10-02T00:40:00.293Z,18.9
2022-10-02T00:41:00.285Z,18.9
2022-10-02T00:42:00.352Z,18.9
2022-10-02T00:43:00.435Z,18.9
2022-10-02T00:44:00.312Z,18.9
2022-10-02T00:45:00.308Z,18.9
2022-10-02T00:46:00.400Z,18.8
2022-10-02T00:47:00.439Z,18.8
2022-10-02T00:48:00.350Z,18.8
2022-10-02T00:49:00.536Z,18.8
2022-10-02T00:50:00.402Z,18.8
2022-10-02T00:51:00.329Z,18.7
2022-10-02T00:52:00.309Z,18.7
2022-10-02T00:53:00.316Z,18.7
2022-10-02T00:54:00.349Z,18.7
2022-10-02T00:55:00.664Z,18.7
2022-10-02T00:56:00.319Z,18.7
2022-10-02T00:57:00.302Z,18.7
2022-10-02T00:58:00.331Z,18.6
2022-10-02T00:59:00.285Z,18.7
2022-10-02T01:00:00.390Z,18.6
2022-10-02T01:01:00.588Z,18.6
2022-10-02T01:02:00.411Z,18.6
2022-10-02T01:03:00.310Z,18.5
2022-10-02T01:04:00.314Z,18.5
2022-10-02T01:05:00.369Z,18.5
2022-10-02T01:06:00.308Z,18.5
2022-10-02T01:07:00.467Z,18.5
2022-10-02T01:08:00.355Z,18.4
2022-10-02T01:09:00.304Z,18.4
2022-10-02T01:10:00.392Z,18.4
2022-10-02T01:11:00.291Z,18.4
2022-10-02T01:12:00.297Z,18.4
2022-10-02T01:13:00.603Z,18.4
2022-10-02T01:14:00.279Z,18.4
2022-10-02T01:15:00.291Z,18.5
2022-10-02T01:16:00.341Z,18.5
2022-10-02T01:17:00.332Z,18.4
2022-10-02T01:18:00.302Z,18.4
2022-10-02T01:19:00.539Z,18.4
2022-10-02T01:20:00.387Z,18.4
2022-10-02T01:21:00.385Z,18.4
2022-10-02T01:22:00.294Z,18.4
2022-10-02T01:23:00.292Z,18.5
2022-10-02T01:24:00.281Z,18.5
2022-10-02T01:25:00.418Z,18.4
2022-10-02T01:26:00.311Z,18.4
2022-10-02T01:27:00.281Z,18.4
2022-10-02T01:28:00.367Z,18.4
2022-10-02T01:29:00.295Z,18.4
2022-10-02T01:30:00.296Z,18.4
2022-10-02T01:31:00.529Z,18.4
2022-10-02T01:32:00.354Z,18.4
2022-10-02T01:33:00.296Z,18.4
2022-10-02T01:34:00.305Z,18.4
2022-10-02T01:35:00.299Z,18.4
2022-10-02T01:36:00.432Z,18.4
2022-10-02T01:37:00.491Z,18.4
2022-10-02T01:38:00.285Z,18.4
2022-10-02T01:39:00.284Z,18.4
2022-10-02T01:40:00.314Z,18.4
2022-10-02T01:41:00.296Z,18.4
2022-10-02T01:42:00.309Z,18.4
2022-10-02T01:43:00.425Z,18.4
2022-10-02T01:44:00.314Z,18.4
2022-10-02T01:45:00.310Z,18.4
2022-10-02T01:46:00.349Z,18.4
2022-10-02T01:47:00.316Z,18.4
2022-10-02T01:48:00.315Z,18.4
2022-10-02T01:49:00.451Z,18.4
2022-10-02T01:50:00.391Z,18.4
2022-10-02T01:51:00.574Z,18.4
2022-10-02T01:52:00.332Z,18.4
2022-10-02T01:53:00.358Z,18.4
2022-10-02T01:54:00.290Z,18.4
2022-10-02T01:55:00.431Z,18.4
2022-10-02T01:56:00.369Z,18.4
2022-10-02T01:57:00.297Z,18.4
2022-10-02T01:58:00.304Z,18.4
2022-10-02T01:59:00.343Z,18.4
2022-10-02T02:00:00.440Z,18.4
2022-10-02T02:01:00.611Z,18.4
2022-10-02T02:02:00.320Z,18.4
2022-10-02T02:03:00.293Z,18.4
2022-10-02T02:04:00.318Z,18.3
2022-10-02T02:05:00.296Z,18.3
2022-10-02T02:06:00.583Z,18.3
2022-10-02T02:07:00.539Z,18.3
2022-10-02T02:08:00.284Z,18.3
2022-10-02T02:09:02.079Z,18.2
2022-10-02T02:10:00.310Z,18.2
2022-10-02T02:11:00.301Z,18.2
2022-10-02T02:12:00.298Z,18.2
2022-10-02T02:13:00.444Z,18.1
2022-10-02T02:14:00.308Z,18.2
2022-10-02T02:15:00.293Z,18.2
2022-10-02T02:16:00.356Z,18.2
2022-10-02T02:17:00.373Z,18.1
2022-10-02T02:18:00.308Z,18.1
2022-10-02T02:19:00.418Z,18.1
2022-10-02T02:20:00.280Z,18.1
2022-10-02T02:21:00.685Z,18.1
2022-10-02T02:22:00.315Z,18.0
2022-10-02T02:23:00.301Z,18.1
2022-10-02T02:24:00.286Z,18.0
2022-10-02T02:25:00.426Z,18.0
2022-10-02T02:26:00.299Z,18.0
2022-10-02T02:27:00.316Z,18.0
2022-10-02T02:28:00.330Z,18.0
2022-10-02T02:29:00.330Z,18.0
2022-10-02T02:30:00.302Z,18.0
2022-10-02T02:31:00.474Z,18.0
2022-10-02T02:32:00.323Z,18.0
2022-10-02T02:33:00.322Z,18.0
2022-10-02T02:34:00.297Z,18.0
2022-10-02T02:35:00.326Z,18.1
2022-10-02T02:36:00.426Z,18.1
2022-10-02T02:37:00.395Z,18.1
2022-10-02T02:38:00.361Z,18.1
2022-10-02T02:39:00.310Z,18.1
2022-10-02T02:40:00.300Z,18.1
2022-10-02T02:41:00.357Z,18.0
2022-10-02T02:42:00.367Z,18.0
2022-10-02T02:43:00.521Z,18.0
2022-10-02T02:44:00.298Z,18.0
2022-10-02T02:45:00.317Z,18.0
2022-10-02T02:46:00.412Z,18.0
2022-10-02T02:47:00.412Z,18.0
2022-10-02T02:48:00.350Z,18.0
2022-10-02T02:49:00.474Z,18.0
2022-10-02T02:50:00.286Z,18.0
2022-10-02T02:51:00.379Z,17.9
2022-10-02T02:52:00.325Z,17.9
2022-10-02T02:53:00.307Z,17.9
2022-10-02T02:54:00.313Z,17.9
2022-10-02T02:55:00.393Z,17.9
2022-10-02T02:56:00.292Z,17.9
2022-10-02T02:57:00.295Z,17.9
2022-10-02T02:58:00.296Z,17.9
2022-10-02T02:59:00.302Z,17.9
2022-10-02T03:00:00.314Z,17.9
2022-10-02T03:01:00.474Z,17.9
2022-10-02T03:02:00.355Z,17.8
2022-10-02T03:03:00.293Z,17.9
2022-10-02T03:04:00.283Z,17.9
2022-10-02T03:05:00.294Z,17.9
2022-10-02T03:06:00.327Z,17.9
2022-10-02T03:07:00.418Z,17.9
2022-10-02T03:08:00.297Z,17.9
2022-10-02T03:09:00.308Z,18.0
2022-10-02T03:10:00.307Z,18.0
2022-10-02T03:11:00.287Z,18.0
2022-10-02T03:12:00.284Z,17.9
2022-10-02T03:13:00.468Z,17.9
2022-10-02T03:14:00.325Z,17.9
2022-10-02T03:15:00.304Z,17.9
2022-10-02T03:16:00.392Z,17.9
2022-10-02T03:17:00.298Z,17.9
2022-10-02T03:18:00.289Z,17.9
2022-10-02T03:19:00.462Z,17.9
2022-10-02T03:20:00.332Z,17.9
2022-10-02T03:21:00.328Z,17.9
2022-10-02T03:22:00.528Z,17.9
2022-10-02T03:23:00.285Z,18.0
2022-10-02T03:24:00.299Z,18.0
2022-10-02T03:25:00.597Z,18.0
2022-10-02T03:26:00.317Z,18.0
2022-10-02T03:27:00.298Z,18.0
2022-10-02T03:28:00.378Z,18.0
2022-10-02T03:29:00.340Z,18.1
2022-10-02T03:30:00.311Z,18.1
2022-10-02T03:31:00.426Z,18.1
2022-10-02T03:32:00.277Z,18.1
2022-10-02T03:33:00.357Z,18.2
2022-10-02T03:34:00.298Z,18.2
2022-10-02T03:35:00.387Z,18.2
2022-10-02T03:36:00.322Z,18.2
2022-10-02T03:37:00.501Z,18.3
2022-10-02T03:38:00.360Z,18.4
2022-10-02T03:39:23.731Z,18.4
2022-10-02T03:40:00.365Z,18.4
2022-10-02T03:41:00.346Z,18.4
2022-10-02T03:42:00.316Z,18.4
2022-10-02T03:43:00.547Z,18.4
2022-10-02T03:44:00.314Z,18.5
2022-10-02T03:45:00.290Z,18.4
2022-10-02T03:46:00.322Z,18.4
2022-10-02T03:47:00.283Z,18.4
2022-10-02T03:48:00.301Z,18.5
2022-10-02T03:49:00.468Z,18.6
2022-10-02T03:50:00.298Z,18.6
2022-10-02T03:51:00.283Z,18.6
2022-10-02T03:52:00.449Z,18.6
2022-10-02T03:53:00.287Z,18.6
2022-10-02T03:54:00.290Z,18.6
2022-10-02T03:55:00.502Z,18.6
2022-10-02T03:56:00.298Z,18.6
2022-10-02T03:57:00.297Z,18.6
2022-10-02T03:58:00.307Z,18.6
2022-10-02T03:59:00.312Z,18.6
2022-10-02T04:00:00.283Z,18.7
2022-10-02T04:01:00.477Z,18.7
2022-10-02T04:02:00.392Z,18.7
2022-10-02T04:03:00.314Z,18.8
2022-10-02T04:04:00.326Z,18.8
2022-10-02T04:05:00.315Z,18.9
2022-10-02T04:06:00.307Z,18.9
2022-10-02T04:07:00.435Z,19.0
2022-10-02T04:08:00.294Z,19.0
2022-10-02T04:09:00.315Z,19.1
2022-10-02T04:10:00.302Z,19.2
2022-10-02T04:11:00.311Z,19.3
2022-10-02T04:12:00.281Z,19.4
2022-10-02T04:13:00.468Z,19.5
2022-10-02T04:14:00.359Z,19.6
2022-10-02T04:15:00.344Z,19.7
2022-10-02T04:16:00.335Z,19.7
2022-10-02T04:17:00.335Z,19.8
2022-10-02T04:18:00.367Z,19.9
2022-10-02T04:19:00.546Z,20.0
2022-10-02T04:20:00.292Z,20.1
2022-10-02T04:21:00.370Z,20.1
2022-10-02T04:22:00.484Z,20.2
2022-10-02T04:23:00.331Z,20.3
2022-10-02T04:24:00.365Z,20.4
2022-10-02T04:25:00.528Z,20.5
2022-10-02T04:26:00.317Z,20.5
2022-10-02T04:27:00.336Z,20.6
2022-10-02T04:28:00.402Z,20.7
2022-10-02T04:29:00.369Z,20.7
2022-10-02T04:30:00.292Z,20.7
2022-10-02T04:31:00.479Z,20.7
2022-10-02T04:32:00.361Z,20.7
2022-10-02T04:33:00.304Z,20.7
2022-10-02T04:34:00.314Z,20.8
2022-10-02T04:35:00.298Z,20.8
2022-10-02T04:36:00.307Z,20.8
2022-10-02T04:37:00.592Z,20.8
2022-10-02T04:38:00.284Z,20.8
2022-10-02T04:39:00.295Z,20.8
2022-10-02T04:40:00.293Z,20.9
2022-10-02T04:41:00.298Z,20.9
2022-10-02T04:42:00.314Z,21.0
2022-10-02T04:43:00.462Z,21.1
2022-10-02T04:44:00.299Z,21.1
2022-10-02T04:45:00.301Z,21.1
2022-10-02T04:46:00.407Z,21.1
2022-10-02T04:47:00.310Z,21.2
2022-10-02T04:48:00.302Z,21.3
2022-10-02T04:49:00.435Z,21.3
2022-10-02T04:50:00.289Z,21.4
2022-10-02T04:51:00.291Z,21.3
2022-10-02T04:52:00.471Z,21.3
2022-10-02T04:53:00.299Z,21.4
2022-10-02T04:54:00.295Z,21.4
2022-10-02T04:55:00.383Z,21.4
2022-10-02T04:56:00.313Z,21.4
2022-10-02T04:57:00.289Z,21.4
2022-10-02T04:58:00.290Z,21.4
2022-10-02T04:59:00.299Z,21.5
2022-10-02T05:00:00.333Z,21.6
2022-10-02T05:01:00.541Z,21.7
2022-10-02T05:02:00.354Z,22.0
2022-10-02T05:03:00.284Z,24.2
2022-10-02T05:04:03.895Z,27.1
2022-10-02T05:05:00.304Z,28.9
2022-10-02T05:06:00.338Z,30.3
2022-10-02T05:07:00.481Z,31.4
2022-10-02T05:08:00.356Z,32.5
2022-10-02T05:09:00.352Z,33.5
2022-10-02T05:10:00.305Z,34.5
2022-10-02T05:11:00.308Z,35.3
2022-10-02T05:12:00.387Z,36.1
2022-10-02T05:13:00.443Z,36.7
2022-10-02T05:14:00.364Z,37.3
2022-10-02T05:15:00.309Z,37.9
2022-10-02T05:16:00.404Z,38.4
2022-10-02T05:17:00.386Z,38.8
2022-10-02T05:18:00.363Z,39.1
2022-10-02T05:19:00.457Z,39.3
2022-10-02T05:20:00.296Z,39.5
2022-10-02T05:21:00.287Z,39.8
2022-10-02T05:22:00.356Z,40.1
2022-10-02T05:23:00.285Z,40.4
2022-10-02T05:24:00.309Z,40.7
2022-10-02T05:25:00.493Z,41.0
2022-10-02T05:26:00.354Z,41.2
2022-10-02T05:27:00.308Z,41.4
2022-10-02T05:28:00.381Z,41.5
2022-10-02T05:29:00.298Z,41.7
2022-10-02T05:30:00.304Z,41.9
2022-10-02T05:31:00.483Z,41.7
2022-10-02T05:32:00.282Z,41.5
2022-10-02T05:33:00.286Z,41.4
2022-10-02T05:34:00.291Z,41.5
2022-10-02T05:35:00.287Z,41.7
2022-10-02T05:36:00.313Z,41.7
2022-10-02T05:37:00.483Z,41.8
2022-10-02T05:38:00.295Z,41.7
2022-10-02T05:39:00.297Z,41.3
2022-10-02T05:40:00.312Z,41.2
2022-10-02T05:41:00.292Z,40.9
2022-10-02T05:42:00.287Z,40.8
2022-10-02T05:43:00.684Z,40.9
2022-10-02T05:44:00.305Z,40.9
2022-10-02T05:45:00.294Z,41.1
2022-10-02T05:46:00.293Z,41.1
2022-10-02T05:47:00.380Z,41.1
2022-10-02T05:48:00.314Z,41.1
2022-10-02T05:49:01.087Z,41.2
2022-10-02T05:50:00.331Z,41.1
2022-10-02T05:51:00.309Z,41.2
2022-10-02T05:52:00.437Z,41.0
2022-10-02T05:53:00.320Z,40.8
2022-10-02T05:54:00.320Z,40.9
2022-10-02T05:55:00.472Z,41.1
2022-10-02T05:56:00.289Z,41.4
2022-10-02T05:57:00.293Z,41.7
2022-10-02T05:58:00.389Z,42.1
2022-10-02T05:59:00.307Z,42.4
2022-10-02T06:00:00.294Z,42.4
2022-10-02T06:01:00.563Z,42.3
2022-10-02T06:02:00.346Z,42.2
2022-10-02T06:03:00.311Z,42.0
2022-10-02T06:04:00.357Z,41.7
2022-10-02T06:05:00.300Z,41.0
2022-10-02T06:06:00.359Z,41.1
2022-10-02T06:07:00.460Z,41.5
2022-10-02T06:08:00.297Z,41.6
2022-10-02T06:09:00.326Z,41.5
2022-10-02T06:10:00.350Z,41.6
2022-10-02T06:11:00.293Z,41.8
2022-10-02T06:12:00.298Z,41.5
2022-10-02T06:13:00.625Z,41.4
2022-10-02T06:14:00.315Z,41.6
2022-10-02T06:15:00.320Z,41.5
2022-10-02T06:16:00.370Z,41.4
2022-10-02T06:17:00.312Z,41.7
2022-10-02T06:18:00.343Z,41.9
2022-10-02T06:19:00.527Z,42.2
2022-10-02T06:20:03.365Z,42.2
2022-10-02T06:21:00.277Z,41.9
2022-10-02T06:22:00.439Z,42.0
2022-10-02T06:23:00.417Z,42.1
2022-10-02T06:24:00.311Z,42.1
2022-10-02T06:25:00.403Z,42.4
2022-10-02T06:26:00.315Z,42.5
2022-10-02T06:27:00.303Z,42.5
2022-10-02T06:28:00.367Z,42.4
2022-10-02T06:29:00.279Z,42.1
2022-10-02T06:30:00.301Z,41.9
2022-10-02T06:31:00.524Z,42.0
2022-10-02T06:32:00.398Z,42.4
2022-10-02T06:33:00.310Z,42.7
2022-10-02T06:34:00.298Z,42.8
2022-10-02T06:35:00.299Z,43.1
2022-10-02T06:36:00.294Z,43.5
2022-10-02T06:37:00.505Z,43.8
2022-10-02T06:38:00.448Z,44.0
2022-10-02T06:39:00.307Z,44.0
2022-10-02T06:40:00.296Z,44.4
2022-10-02T06:41:00.301Z,44.4
2022-10-02T06:42:00.297Z,44.1
2022-10-02T06:43:00.530Z,44.1
2022-10-02T06:44:00.304Z,44.1
2022-10-02T06:45:00.320Z,43.9
2022-10-02T06:46:00.339Z,43.8
2022-10-02T06:47:00.365Z,43.9
2022-10-02T06:48:00.379Z,43.9
2022-10-02T06:49:00.696Z,44.1
2022-10-02T06:50:00.333Z,44.2
2022-10-02T06:51:00.355Z,44.0
2022-10-02T06:52:00.380Z,43.7
2022-10-02T06:53:00.475Z,43.7
2022-10-02T06:54:00.284Z,43.6
2022-10-02T06:55:00.406Z,43.5
2022-10-02T06:56:00.340Z,43.4
2022-10-02T06:57:00.357Z,43.2
2022-10-02T06:58:00.315Z,42.7
2022-10-02T06:59:00.333Z,42.7
2022-10-02T07:00:00.342Z,43.2
2022-10-02T07:01:00.543Z,43.3
2022-10-02T07:02:00.360Z,43.4
2022-10-02T07:03:00.301Z,43.5
2022-10-02T07:04:00.324Z,43.5
2022-10-02T07:05:00.324Z,43.6
2022-10-02T07:06:00.284Z,43.4
2022-10-02T07:07:00.582Z,43.6
2022-10-02T07:08:00.612Z,44.0
2022-10-02T07:09:00.449Z,44.2
2022-10-02T07:10:00.315Z,43.7
2022-10-02T07:11:00.300Z,43.5
2022-10-02T07:12:00.296Z,43.5
2022-10-02T07:13:00.415Z,43.9
2022-10-02T07:14:00.277Z,44.4
2022-10-02T07:15:00.298Z,44.9
2022-10-02T07:16:00.393Z,44.9
2022-10-02T07:17:00.517Z,45.0
2022-10-02T07:18:00.646Z,45.1
2022-10-02T07:19:00.889Z,45.4
2022-10-02T07:20:00.321Z,45.7
2022-10-02T07:21:00.305Z,45.8
2022-10-02T07:22:00.300Z,46.0
2022-10-02T07:23:00.288Z,46.0
2022-10-02T07:24:02.540Z,45.8
2022-10-02T07:25:00.509Z,45.8
2022-10-02T07:26:00.292Z,45.9
2022-10-02T07:27:00.305Z,46.3
2022-10-02T07:28:00.349Z,46.4
2022-10-02T07:29:00.294Z,45.7
2022-10-02T07:30:00.329Z,45.3
2022-10-02T07:31:00.426Z,45.2
2022-10-02T07:32:00.317Z,45.2
2022-10-02T07:33:00.318Z,45.3
2022-10-02T07:34:00.293Z,45.5
2022-10-02T07:35:00.301Z,45.5
2022-10-02T07:36:00.297Z,45.7
2022-10-02T07:37:00.443Z,45.9
2022-10-02T07:38:00.321Z,46.4
2022-10-02T07:39:00.479Z,46.7
2022-10-02T07:40:00.421Z,46.7
2022-10-02T07:41:00.351Z,46.8
2022-10-02T07:42:00.374Z,46.7
2022-10-02T07:43:00.433Z,46.7
2022-10-02T07:44:00.309Z,46.9
2022-10-02T07:45:00.298Z,46.7
2022-10-02T07:46:00.311Z,46.7
2022-10-02T07:47:00.381Z,46.7
2022-10-02T07:48:00.310Z,46.4
2022-10-02T07:49:00.445Z,45.9
2022-10-02T07:50:00.300Z,45.8
2022-10-02T07:51:00.320Z,46.0
2022-10-02T07:52:00.332Z,46.0
2022-10-02T07:53:00.315Z,46.2
2022-10-02T07:54:00.281Z,46.5
2022-10-02T07:55:00.586Z,46.5
2022-10-02T07:56:00.280Z,46.6
2022-10-02T07:57:00.311Z,46.4
2022-10-02T07:58:00.293Z,46.3
2022-10-02T07:59:00.334Z,46.3
2022-10-02T08:00:00.282Z,46.0
2022-10-02T08:01:00.422Z,45.8
2022-10-02T08:02:00.342Z,46.0
2022-10-02T08:03:00.380Z,46.4
2022-10-02T08:04:00.302Z,46.5
2022-10-02T08:05:00.329Z,46.4
2022-10-02T08:06:00.316Z,46.5
2022-10-02T08:07:00.428Z,46.6
2022-10-02T08:08:00.283Z,46.8
2022-10-02T08:09:00.320Z,46.9
2022-10-02T08:10:00.451Z,47.0
2022-10-02T08:11:00.298Z,46.7
2022-10-02T08:12:00.337Z,46.2
2022-10-02T08:13:00.349Z,46.0
2022-10-02T08:14:00.314Z,45.9
2022-10-02T08:15:00.323Z,45.9
2022-10-02T08:16:00.360Z,46.2
2022-10-02T08:17:00.312Z,46.4
2022-10-02T08:18:16.379Z,46.6
2022-10-02T08:19:00.421Z,46.9
2022-10-02T08:20:00.291Z,47.1
2022-10-02T08:21:00.285Z,47.2
2022-10-02T08:22:00.287Z,47.2
2022-10-02T08:23:00.294Z,47.3
2022-10-02T08:24:00.291Z,47.3
2022-10-02T08:25:00.464Z,47.4
2022-10-02T08:26:00.308Z,47.6
2022-10-02T08:27:00.301Z,47.8
2022-10-02T08:28:00.356Z,47.8
2022-10-02T08:29:00.290Z,47.7
2022-10-02T08:30:00.379Z,47.7
2022-10-02T08:31:00.492Z,47.5
2022-10-02T08:32:00.399Z,47.4
2022-10-02T08:33:00.351Z,47.4
2022-10-02T08:34:00.307Z,47.5
2022-10-02T08:35:00.297Z,47.6
2022-10-02T08:36:00.309Z,47.5
2022-10-02T08:37:00.491Z,47.2
2022-10-02T08:38:00.346Z,46.9
2022-10-02T08:39:00.320Z,46.5
2022-10-02T08:40:00.426Z,46.4
2022-10-02T08:41:00.300Z,46.7
2022-10-02T08:42:00.316Z,46.8
2022-10-02T08:43:00.617Z,47.0
2022-10-02T08:44:00.389Z,47.2
2022-10-02T08:45:00.297Z,47.3
2022-10-02T08:46:00.371Z,47.3
2022-10-02T08:47:00.282Z,47.2
2022-10-02T08:48:00.282Z,47.0
2022-10-02T08:49:00.479Z,47.3
2022-10-02T08:50:00.304Z,47.4
2022-10-02T08:51:00.429Z,47.3
2022-10-02T08:52:00.310Z,47.3
2022-10-02T08:53:00.285Z,47.2
2022-10-02T08:54:00.305Z,47.2
2022-10-02T08:55:00.548Z,47.2
2022-10-02T08:56:00.530Z,47.0
2022-10-02T08:57:00.283Z,46.9
2022-10-02T08:58:00.311Z,46.7
2022-10-02T08:59:00.301Z,46.3
2022-10-02T09:00:00.301Z,46.0
2022-10-02T09:01:00.561Z,45.9
2022-10-02T09:02:00.418Z,46.1
2022-10-02T09:03:00.290Z,46.4
2022-10-02T09:04:00.279Z,46.7
2022-10-02T09:05:00.332Z,47.0
2022-10-02T09:06:00.307Z,47.1
2022-10-02T09:07:00.413Z,47.4
2022-10-02T09:08:00.282Z,47.4
2022-10-02T09:09:00.324Z,47.5
2022-10-02T09:10:00.310Z,47.6
2022-10-02T09:11:00.435Z,47.5
2022-10-02T09:12:00.304Z,47.5
2022-10-02T09:13:00.390Z,47.6
2022-10-02T09:14:00.315Z,47.5
2022-10-02T09:15:00.286Z,47.5
2022-10-02T09:16:00.327Z,47.4
2022-10-02T09:17:00.306Z,47.3
2022-10-02T09:18:00.280Z,47.2
2022-10-02T09:19:00.455Z,47.1
2022-10-02T09:20:00.374Z,47.0
2022-10-02T09:21:00.377Z,46.8
2022-10-02T09:22:00.342Z,46.7
2022-10-02T09:23:00.373Z,46.5
2022-10-02T09:24:00.372Z,46.3
2022-10-02T09:25:00.484Z,45.8
2022-10-02T09:26:00.345Z,45.1
2022-10-02T09:27:00.421Z,44.7
2022-10-02T09:28:00.462Z,44.2
2022-10-02T09:29:00.293Z,43.5
2022-10-02T09:30:00.299Z,43.5
2022-10-02T09:31:00.450Z,43.8
2022-10-02T09:32:00.406Z,44.1
2022-10-02T09:33:00.284Z,44.4
2022-10-02T09:34:00.306Z,44.7
2022-10-02T09:35:00.298Z,44.9
2022-10-02T09:36:00.311Z,45.0
2022-10-02T09:37:00.445Z,45.0
2022-10-02T09:38:00.312Z,44.7
2022-10-02T09:39:00.280Z,44.5
2022-10-02T09:40:00.301Z,44.5
2022-10-02T09:41:00.283Z,44.7
2022-10-02T09:42:00.603Z,44.8
2022-10-02T09:43:00.446Z,44.8
2022-10-02T09:44:00.295Z,44.8
2022-10-02T09:45:01.815Z,44.9
2022-10-02T09:46:00.339Z,45.1
2022-10-02T09:47:00.288Z,45.0
2022-10-02T09:48:00.313Z,44.8
2022-10-02T09:49:00.451Z,44.8
2022-10-02T09:50:00.301Z,44.8
2022-10-02T09:51:00.314Z,44.7
2022-10-02T09:52:00.299Z,44.8
2022-10-02T09:53:00.280Z,44.9
2022-10-02T09:54:00.306Z,45.0
2022-10-02T09:55:00.429Z,45.0
2022-10-02T09:56:00.309Z,44.9
2022-10-02T09:57:00.416Z,44.9
2022-10-02T09:58:00.397Z,45.1
2022-10-02T09:59:00.461Z,45.2
2022-10-02T10:00:00.450Z,45.1
2022-10-02T10:01:00.748Z,45.0
2022-10-02T10:02:00.417Z,45.0
2022-10-02T10:03:00.310Z,45.0
2022-10-02T10:04:00.351Z,44.9
2022-10-02T10:05:06.083Z,44.7
2022-10-02T10:06:00.348Z,44.7
2022-10-02T10:07:00.445Z,44.6
2022-10-02T10:08:00.326Z,44.6
2022-10-02T10:09:00.315Z,44.4
2022-10-02T10:10:00.303Z,44.3
2022-10-02T10:11:00.306Z,44.3
2022-10-02T10:12:00.314Z,44.2
2022-10-02T10:13:00.531Z,43.9
2022-10-02T10:14:00.554Z,43.7
2022-10-02T10:15:00.432Z,43.6
2022-10-02T10:16:00.389Z,43.5
2022-10-02T10:17:00.326Z,43.3
2022-10-02T10:18:00.354Z,43.1
2022-10-02T10:19:00.592Z,42.9
2022-10-02T10:20:00.368Z,42.6
2022-10-02T10:21:00.294Z,42.3
2022-10-02T10:22:00.298Z,42.0
2022-10-02T10:23:00.427Z,41.7
2022-10-02T10:24:00.299Z,41.4
2022-10-02T10:25:00.465Z,41.2
2022-10-02T10:26:00.293Z,40.7
2022-10-02T10:27:00.292Z,40.5
2022-10-02T10:28:00.362Z,40.6
2022-10-02T10:29:00.307Z,40.7
2022-10-02T10:30:00.454Z,40.8
2022-10-02T10:31:00.495Z,40.6
2022-10-02T10:32:00.392Z,39.9
2022-10-02T10:33:00.296Z,38.5
2022-10-02T10:34:00.302Z,37.1
2022-10-02T10:35:00.300Z,36.0
2022-10-02T10:36:00.281Z,35.3
2022-10-02T10:37:00.585Z,35.0
2022-10-02T10:38:00.351Z,34.2
2022-10-02T10:39:00.333Z,33.7
2022-10-02T10:40:00.518Z,33.3
2022-10-02T10:41:00.356Z,33.3
2022-10-02T10:42:00.364Z,33.5
2022-10-02T10:43:07.785Z,34.3
2022-10-02T10:44:00.302Z,35.1
2022-10-02T10:45:00.278Z,35.3
2022-10-02T10:46:00.361Z,35.4
2022-10-02T10:47:00.513Z,35.5
2022-10-02T10:48:00.291Z,35.6
2022-10-02T10:49:00.393Z,35.5
2022-10-02T10:50:00.307Z,35.5
2022-10-02T10:51:00.293Z,35.6
2022-10-02T10:52:00.311Z,35.5
2022-10-02T10:53:00.316Z,35.3
2022-10-02T10:54:02.074Z,35.1
2022-10-02T10:55:00.503Z,35.0
2022-10-02T10:56:00.353Z,35.0
2022-10-02T10:57:00.312Z,35.0
2022-10-02T10:58:00.296Z,34.9
2022-10-02T10:59:00.348Z,34.6
2022-10-02T11:00:00.379Z,34.3
2022-10-02T11:01:00.626Z,34.0
2022-10-02T11:02:00.455Z,33.9
2022-10-02T11:03:01.356Z,33.9
2022-10-02T11:04:00.325Z,33.8
2022-10-02T11:05:00.381Z,33.6
2022-10-02T11:06:00.273Z,33.3
2022-10-02T11:07:00.502Z,33.1
2022-10-02T11:08:00.357Z,32.7
2022-10-02T11:09:00.290Z,32.4
2022-10-02T11:10:00.387Z,32.0
2022-10-02T11:11:00.350Z,31.7
2022-10-02T11:12:00.297Z,31.4
2022-10-02T11:13:00.464Z,31.1
2022-10-02T11:14:00.292Z,31.0
2022-10-02T11:15:00.308Z,30.9
2022-10-02T11:16:00.415Z,30.7
2022-10-02T11:17:00.418Z,30.6
2022-10-02T11:18:00.318Z,30.4
2022-10-02T11:19:00.393Z,30.3
2022-10-02T11:20:00.336Z,30.2
2022-10-02T11:21:00.310Z,30.2
2022-10-02T11:22:00.282Z,30.2
2022-10-02T11:23:00.288Z,30.2
2022-10-02T11:24:00.308Z,30.2
2022-10-02T11:25:00.448Z,30.1
2022-10-02T11:26:00.273Z,30.0
2022-10-02T11:27:00.334Z,29.9
2022-10-02T11:28:00.358Z,29.8
2022-10-02T11:29:00.302Z,29.7
2022-10-02T11:30:00.276Z,29.7
2022-10-02T11:31:00.563Z,29.6
2022-10-02T11:32:00.639Z,29.5
2022-10-02T11:33:00.558Z,29.5
2022-10-02T11:34:00.284Z,29.4
2022-10-02T11:35:00.305Z,29.3
2022-10-02T11:36:00.336Z,29.1
2022-10-02T11:37:00.444Z,29.0
2022-10-02T11:38:03.829Z,28.9
2022-10-02T11:39:00.290Z,28.8
2022-10-02T11:40:00.291Z,28.8
2022-10-02T11:41:00.285Z,28.8
2022-10-02T11:42:00.281Z,28.8
2022-10-02T11:43:00.411Z,28.7
2022-10-02T11:44:00.303Z,28.7
2022-10-02T11:45:00.300Z,28.7
2022-10-02T11:46:00.408Z,28.8
2022-10-02T11:47:00.300Z,28.7
2022-10-02T11:48:00.528Z,28.7
2022-10-02T11:49:00.462Z,28.7
2022-10-02T11:50:00.282Z,28.6
2022-10-02T11:51:00.295Z,28.7
2022-10-02T11:52:00.309Z,28.7
2022-10-02T11:53:00.282Z,28.7
2022-10-02T11:54:00.390Z,28.7
2022-10-02T11:55:00.489Z,28.6
2022-10-02T11:56:00.346Z,28.5
2022-10-02T11:57:00.355Z,28.5
2022-10-02T11:58:00.332Z,28.5
2022-10-02T11:59:00.350Z,28.5
2022-10-02T12:00:00.284Z,28.5
2022-10-02T12:01:00.477Z,28.4
2022-10-02T12:02:00.417Z,28.4
2022-10-02T12:03:00.401Z,28.4
2022-10-02T12:04:00.280Z,28.4
2022-10-02T12:05:00.421Z,28.4
2022-10-02T12:06:00.284Z,28.4
2022-10-02T12:07:00.559Z,28.4
2022-10-02T12:08:00.304Z,28.4
2022-10-02T12:09:00.301Z,28.3
2022-10-02T12:10:00.274Z,28.2
2022-10-02T12:11:00.280Z,28.2
2022-10-02T12:12:00.288Z,28.2
2022-10-02T12:13:00.454Z,28.1
2022-10-02T12:14:00.289Z,28.1
2022-10-02T12:15:00.385Z,28.0
2022-10-02T12:16:00.431Z,27.9
2022-10-02T12:17:00.350Z,27.9
2022-10-02T12:18:00.286Z,27.9
2022-10-02T12:19:00.419Z,27.9
2022-10-02T12:20:00.526Z,27.8
2022-10-02T12:21:00.346Z,27.8
2022-10-02T12:22:00.271Z,27.8
2022-10-02T12:23:00.285Z,27.9
2022-10-02T12:24:00.266Z,27.9
2022-10-02T12:25:00.635Z,27.9
2022-10-02T12:26:00.282Z,27.9
2022-10-02T12:27:00.268Z,27.9
2022-10-02T12:28:00.368Z,27.9
2022-10-02T12:29:00.275Z,27.9
2022-10-02T12:30:00.496Z,27.9
2022-10-02T12:31:00.412Z,27.9
2022-10-02T12:32:00.372Z,27.9
2022-10-02T12:33:00.299Z,27.9
2022-10-02T12:34:00.283Z,27.9
2022-10-02T12:35:00.276Z,27.9
2022-10-02T12:36:00.414Z,27.9
2022-10-02T12:37:00.473Z,27.7
2022-10-02T12:38:00.320Z,27.6
2022-10-02T12:39:00.333Z,27.5
2022-10-02T12:40:00.307Z,27.5
2022-10-02T12:41:00.293Z,27.6
2022-10-02T12:42:00.362Z,27.5
2022-10-02T12:43:00.452Z,27.5
2022-10-02T12:44:00.302Z,27.5
2022-10-02T12:45:00.298Z,27.4
2022-10-02T12:46:00.315Z,27.4
2022-10-02T12:47:00.273Z,27.4
2022-10-02T12:48:00.374Z,27.4
2022-10-02T12:49:00.429Z,27.5
2022-10-02T12:50:00.273Z,27.5
2022-10-02T12:51:05.292Z,27.4
2022-10-02T12:52:00.281Z,27.4
2022-10-02T12:53:00.296Z,27.5
2022-10-02T12:54:00.274Z,27.4
2022-10-02T12:55:00.563Z,27.4
2022-10-02T12:56:00.397Z,27.5
2022-10-02T12:57:00.287Z,27.5
2022-10-02T12:58:00.282Z,27.5
2022-10-02T12:59:00.291Z,27.5
2022-10-02T13:00:00.316Z,27.5
2022-10-02T13:01:00.823Z,27.5
2022-10-02T13:02:00.353Z,27.5
2022-10-02T13:03:01.760Z,27.4
2022-10-02T13:04:00.298Z,27.4
2022-10-02T13:05:00.292Z,27.3
2022-10-02T13:06:00.452Z,27.3
2022-10-02T13:07:00.458Z,27.3
2022-10-02T13:08:00.306Z,27.4
2022-10-02T13:09:00.295Z,27.4
2022-10-02T13:10:00.314Z,27.4
2022-10-02T13:11:00.313Z,27.4
2022-10-02T13:12:00.299Z,27.4
2022-10-02T13:13:00.445Z,27.4
2022-10-02T13:14:00.329Z,27.3
2022-10-02T13:15:00.313Z,27.4
2022-10-02T13:16:00.345Z,27.4
2022-10-02T13:17:00.356Z,27.4
2022-10-02T13:18:00.328Z,27.5